Phetchaburi, Thailand

04:20 PM +07 on November 22, 2017 (GMT +0700)
Hua Hin Aero | | Change Station

Elev 20 ft 12.58 °N, 99.95 °E | Updated 20 minutes ago

Växlande molnighet
Växlande molnighet
84 °F
Feels Like 92 °F
N
5
Vind Växlande Vind from Nordlig

Idag
High -- | Low -- °F
--% Chance of Precip.
Yesterday
High -- | Low -- °F
Precip. -- tum
Lufttryck 29.71 tum
Sikt 2.5 miles
Molnigt Växlande molnighet 3000 ft
Värmeindex 92 °F
Daggpunkt 75 °F
Luftfuktighet 74%
Rainfall 0.00 tum
Snow Depth Not available.
6:22 AM 5:50 PM
Första kvarteret, 13% visible
METAR VTPH 220900Z 01004KT 310V040 4000 BR SCT030 29/24 Q1006 NOSIG
Lufttryck 29.71 tum
Sikt 2.5 miles
Molnigt Växlande molnighet 3000 ft
Värmeindex 92 °F
Daggpunkt 75 °F
Luftfuktighet 74%
Rainfall 0.00 tum
Snow Depth Not available.
6:22 AM 5:50 PM
Första kvarteret, 13% visible
METAR VTPH 220900Z 01004KT 310V040 4000 BR SCT030 29/24 Q1006 NOSIG

Get Severe Weather Alerts

Thanks for signing up!

Be on the lookout for a verification email in your inbox.

You'll start receiving the daily forecast at 6 AM.

×

10-Day Weather Forecast

No radar image for this location.
×

Almanac

Astronomi

Nov. 22, 2017 Rise Set
Actual Time
Civil Twilight
Nautical Twilight
Astronomical Twilight
Månen
Length Of Visible Light
Dagens längd
Tomorrow will be .
, % of the Moon is Illuminated

Today's Extremes

Country Highs Country Lows

Community

WunderPhotos

Category 6

Welcome to Category 6. This is the collective home for Weather Underground's featured writeups by Dr. Jeff Masters (right), Bob Henson (left), Chris Burt, and other regular contributors.

Nearby

Air Quality

  Air Quality AQ Index Pollutant
Not available.

Snödjup

Station Depth Elevation

Earthquake Activity

Stad Distance Mag. Time & Date
Minimum magnitude displayed is 2.5.

Coastal Water Temperatures

Plats Temperatur

Stations

Nearby Weather Stations

Station Location Temp Vindavkylning Daggpunkt Luftfuktighet Vind Precip. Elev Uppdaterad Type